createdAt,value
2023-08-25T00:01:59.602Z,4.80
2023-08-25T00:04:27.856Z,4.30
2023-08-25T00:06:56.154Z,4.50
2023-08-25T00:09:25.481Z,4.50
2023-08-25T00:11:53.719Z,4.90
2023-08-25T00:14:22.317Z,4.40
2023-08-25T00:16:51.102Z,4.80
2023-08-25T00:19:19.614Z,4.60
2023-08-25T00:21:47.885Z,4.40
2023-08-25T00:24:16.839Z,4.40
2023-08-25T00:26:45.030Z,4.70
2023-08-25T00:29:13.020Z,4.30
2023-08-25T00:31:41.381Z,5.00
2023-08-25T00:34:09.915Z,4.50
2023-08-25T00:36:38.064Z,4.60
2023-08-25T00:39:06.204Z,4.70
2023-08-25T00:41:34.563Z,5.00
2023-08-25T00:44:03.917Z,4.10
2023-08-25T00:46:32.780Z,5.20
2023-08-25T00:49:02.395Z,4.70
2023-08-25T00:51:31.720Z,5.30
2023-08-25T00:53:59.945Z,4.70
2023-08-25T00:56:28.102Z,4.40
2023-08-25T00:58:56.723Z,4.30
2023-08-25T01:01:24.985Z,4.30
2023-08-25T01:03:53.391Z,4.50
2023-08-25T01:06:21.715Z,4.10
2023-08-25T01:08:50.990Z,5.30
2023-08-25T01:11:32.989Z,4.80
2023-08-25T01:14:14.205Z,4.70
2023-08-25T01:16:54.654Z,4.30
2023-08-25T01:19:52.873Z,4.00
2023-08-25T01:23:07.521Z,4.90
2023-08-25T01:25:38.487Z,5.30
2023-08-25T01:28:08.237Z,4.80
2023-08-25T01:30:37.641Z,4.50
2023-08-25T01:33:06.354Z,4.70
2023-08-25T01:35:55.823Z,4.50
2023-08-25T01:38:54.129Z,4.50
2023-08-25T01:41:33.810Z,4.30
2023-08-25T01:44:05.064Z,4.90
2023-08-25T01:46:36.277Z,4.70
2023-08-25T01:49:06.063Z,5.50
2023-08-25T01:51:35.375Z,4.50
2023-08-25T01:54:04.545Z,4.60
2023-08-25T01:56:32.664Z,4.50
2023-08-25T01:59:02.015Z,4.80
2023-08-25T02:01:32.425Z,4.70
2023-08-25T02:04:00.931Z,5.00
2023-08-25T02:06:30.279Z,5.40
2023-08-25T02:08:58.731Z,5.30
2023-08-25T02:11:29.304Z,4.90
2023-08-25T02:13:57.463Z,5.20
2023-08-25T02:16:25.610Z,4.90
2023-08-25T02:18:54.472Z,5.60
2023-08-25T02:21:22.538Z,5.10
2023-08-25T02:23:50.857Z,5.60
2023-08-25T02:26:19.928Z,4.90
2023-08-25T02:28:48.165Z,5.40
2023-08-25T02:31:16.532Z,4.70
2023-08-25T02:33:44.744Z,5.10
2023-08-25T02:36:13.316Z,5.60
2023-08-25T02:38:41.915Z,5.20
2023-08-25T02:41:10.239Z,5.70
2023-08-25T02:43:39.155Z,5.30
2023-08-25T02:46:08.276Z,5.30
2023-08-25T02:48:36.913Z,5.30
2023-08-25T02:51:04.967Z,4.40
2023-08-25T02:53:33.875Z,4.70
2023-08-25T02:56:02.118Z,5.30
2023-08-25T02:58:31.226Z,5.50
2023-08-25T03:01:00.622Z,4.80
2023-08-25T03:03:30.585Z,4.80
2023-08-25T03:06:00.548Z,5.40
2023-08-25T03:08:28.674Z,5.40
2023-08-25T03:10:56.831Z,6.10
2023-08-25T03:13:27.564Z,5.30
2023-08-25T03:15:58.088Z,4.90
2023-08-25T03:18:26.824Z,6.20
2023-08-25T03:20:55.440Z,5.20
2023-08-25T03:23:24.359Z,4.90
2023-08-25T03:25:52.517Z,5.90
2023-08-25T03:28:20.672Z,5.80
2023-08-25T03:30:52.990Z,5.80
2023-08-25T03:33:23.174Z,5.00
2023-08-25T03:35:51.545Z,5.20
2023-08-25T03:38:21.176Z,5.40
2023-08-25T03:40:49.448Z,5.40
2023-08-25T03:43:19.027Z,4.70
2023-08-25T03:45:48.223Z,4.70
2023-08-25T03:48:16.363Z,5.60
2023-08-25T03:50:49.278Z,4.90
2023-08-25T03:53:17.897Z,5.90
2023-08-25T03:55:46.259Z,4.80
2023-08-25T03:58:14.413Z,5.40
2023-08-25T04:00:42.597Z,5.00
2023-08-25T04:03:10.724Z,5.50
2023-08-25T04:05:39.206Z,6.60
2023-08-25T04:08:07.286Z,5.70
2023-08-25T04:10:36.275Z,6.50
2023-08-25T04:13:05.237Z,6.60
2023-08-25T04:15:34.104Z,6.00
2023-08-25T04:18:02.609Z,5.80
2023-08-25T04:20:31.100Z,6.60
2023-08-25T04:23:02.964Z,6.70
2023-08-25T04:25:31.596Z,6.00
2023-08-25T04:28:03.061Z,5.10
2023-08-25T04:30:31.750Z,5.60
2023-08-25T04:33:04.052Z,5.90
2023-08-25T04:35:33.447Z,6.70
2023-08-25T04:38:02.339Z,5.60
2023-08-25T04:40:30.723Z,5.90
2023-08-25T04:42:59.174Z,6.00
2023-08-25T04:45:29.014Z,8.20
2023-08-25T04:47:58.013Z,6.60
2023-08-25T04:50:26.928Z,6.60
2023-08-25T04:52:55.092Z,6.70
2023-08-25T04:55:23.467Z,8.20
2023-08-25T04:57:51.868Z,6.80
2023-08-25T05:00:21.266Z,6.20
2023-08-25T05:02:50.908Z,6.70
2023-08-25T05:05:20.795Z,6.20
2023-08-25T05:07:49.362Z,7.00
2023-08-25T05:10:18.412Z,10.50
2023-08-25T05:12:48.011Z,7.50
2023-08-25T05:15:16.172Z,6.60
2023-08-25T05:17:44.554Z,7.40
2023-08-25T05:20:18.758Z,6.80
2023-08-25T05:22:46.966Z,6.70
2023-08-25T05:25:15.687Z,6.90
2023-08-25T05:27:45.765Z,8.40
2023-08-25T05:30:15.887Z,7.20
2023-08-25T05:32:47.049Z,6.50
2023-08-25T05:35:35.321Z,7.50
2023-08-25T05:38:04.465Z,7.40
2023-08-25T05:40:32.764Z,7.20
2023-08-25T05:43:01.153Z,7.70
2023-08-25T05:45:29.464Z,7.60
2023-08-25T05:47:58.135Z,7.70
2023-08-25T05:50:26.971Z,7.90
2023-08-25T05:52:55.384Z,8.30
2023-08-25T05:55:24.996Z,7.20
2023-08-25T05:57:53.392Z,7.60
2023-08-25T06:00:21.656Z,9.30
2023-08-25T06:02:50.297Z,7.80
2023-08-25T06:05:18.896Z,10.10
2023-08-25T06:07:47.188Z,7.40
2023-08-25T06:10:15.346Z,7.70
2023-08-25T06:12:43.503Z,7.40
2023-08-25T06:15:11.845Z,7.20
2023-08-25T06:17:40.181Z,22.80
2023-08-25T06:20:09.236Z,8.50
2023-08-25T06:22:37.272Z,7.70
2023-08-25T06:25:06.073Z,7.50
2023-08-25T06:27:34.328Z,7.10
2023-08-25T06:30:04.244Z,6.70
2023-08-25T06:32:33.001Z,9.20
2023-08-25T06:35:01.318Z,8.50
2023-08-25T06:37:29.834Z,6.90
2023-08-25T06:39:58.714Z,6.20
2023-08-25T06:42:26.916Z,6.80
2023-08-25T06:44:55.303Z,6.20
2023-08-25T06:47:23.399Z,7.00
2023-08-25T06:49:51.926Z,6.50
2023-08-25T06:52:20.460Z,7.20
2023-08-25T06:54:48.722Z,7.80
2023-08-25T06:57:16.921Z,8.00
2023-08-25T06:59:45.475Z,6.90
2023-08-25T07:02:14.790Z,7.20
2023-08-25T07:04:43.160Z,7.00
2023-08-25T07:07:11.368Z,6.40
2023-08-25T07:09:41.713Z,7.30
2023-08-25T07:12:11.416Z,8.40
2023-08-25T07:14:39.812Z,7.50
2023-08-25T07:17:07.821Z,7.00
2023-08-25T07:19:36.224Z,8.00
2023-08-25T07:22:05.083Z,7.70
2023-08-25T07:24:33.228Z,8.00
2023-08-25T07:27:01.690Z,6.90
2023-08-25T07:29:29.993Z,6.30
2023-08-25T07:31:58.110Z,6.70
2023-08-25T07:34:26.317Z,6.50
2023-08-25T07:36:54.997Z,6.80
2023-08-25T07:39:23.334Z,5.90
2023-08-25T07:41:52.878Z,7.00
2023-08-25T07:44:21.363Z,6.50
2023-08-25T07:46:49.747Z,6.30
2023-08-25T07:49:18.046Z,6.30
2023-08-25T07:51:46.320Z,6.70
2023-08-25T07:54:14.599Z,6.10
2023-08-25T07:56:43.228Z,5.00
2023-08-25T07:59:11.685Z,6.10
2023-08-25T08:01:39.699Z,6.60
2023-08-25T08:04:09.168Z,6.80
2023-08-25T08:06:37.688Z,7.20
2023-08-25T08:09:08.025Z,6.70
2023-08-25T08:11:36.905Z,7.10
2023-08-25T08:14:05.260Z,5.60
2023-08-25T08:16:36.573Z,6.30
2023-08-25T08:19:06.633Z,5.40
2023-08-25T08:21:35.380Z,4.80
2023-08-25T08:24:03.948Z,5.60
2023-08-25T08:26:32.496Z,6.80
2023-08-25T08:29:00.742Z,5.50
2023-08-25T08:31:28.877Z,5.20
2023-08-25T08:33:57.222Z,5.80
2023-08-25T08:36:25.989Z,5.70
2023-08-25T08:38:54.211Z,4.90
2023-08-25T08:41:22.957Z,4.70
2023-08-25T08:43:53.677Z,5.30
2023-08-25T08:46:23.295Z,5.00
2023-08-25T08:48:52.901Z,4.60
2023-08-25T08:51:23.340Z,5.20
2023-08-25T08:53:53.733Z,5.20
2023-08-25T08:56:24.168Z,4.60
2023-08-25T08:58:52.418Z,4.70
2023-08-25T09:01:21.312Z,5.10
2023-08-25T09:03:51.634Z,4.40
2023-08-25T09:06:20.286Z,4.40
2023-08-25T09:08:52.566Z,5.30
2023-08-25T09:11:20.578Z,4.70
2023-08-25T09:13:58.731Z,4.50
2023-08-25T09:16:27.025Z,3.80
2023-08-25T09:18:55.637Z,4.70
2023-08-25T09:21:25.227Z,5.20
2023-08-25T09:24:04.359Z,4.10
2023-08-25T09:26:39.982Z,5.10
2023-08-25T09:29:07.984Z,4.40
2023-08-25T09:31:36.032Z,4.30
2023-08-25T09:34:07.441Z,4.40
2023-08-25T09:36:50.105Z,3.90
2023-08-25T09:39:18.384Z,3.40
2023-08-25T09:41:47.791Z,4.00
2023-08-25T09:44:17.771Z,4.40
2023-08-25T09:46:46.722Z,4.10
2023-08-25T09:49:15.925Z,3.70
2023-08-25T09:51:48.667Z,4.80
2023-08-25T09:54:19.239Z,5.00
2023-08-25T09:56:48.674Z,5.00
2023-08-25T09:59:17.588Z,3.60
2023-08-25T10:01:47.251Z,3.40
2023-08-25T10:04:18.136Z,4.20
2023-08-25T10:06:46.359Z,3.40
2023-08-25T10:09:15.617Z,3.50
2023-08-25T10:11:47.325Z,3.90
2023-08-25T10:14:15.442Z,4.40
2023-08-25T10:16:51.958Z,3.40
2023-08-25T10:19:25.391Z,3.30
2023-08-25T10:21:55.541Z,3.40
2023-08-25T10:24:25.343Z,3.40
2023-08-25T10:26:55.037Z,3.90
2023-08-25T10:29:24.590Z,4.10
2023-08-25T10:32:00.641Z,3.80
2023-08-25T10:34:41.569Z,4.10
2023-08-25T10:37:12.153Z,3.50
2023-08-25T10:39:53.580Z,3.50
2023-08-25T10:42:33.405Z,4.00
2023-08-25T10:45:10.284Z,4.40
2023-08-25T10:47:43.264Z,3.80
2023-08-25T10:50:12.089Z,3.80
2023-08-25T10:52:47.529Z,3.70
2023-08-25T10:55:30.098Z,2.70
2023-08-25T10:58:03.582Z,4.10
2023-08-25T11:00:37.413Z,2.80
2023-08-25T11:03:06.213Z,3.20
2023-08-25T11:05:38.397Z,2.40
2023-08-25T11:08:27.077Z,2.70
2023-08-25T11:11:16.531Z,3.10
2023-08-25T11:13:45.250Z,3.30
2023-08-25T11:16:14.662Z,2.90
2023-08-25T11:18:45.110Z,3.30
2023-08-25T11:21:13.319Z,3.10
2023-08-25T11:23:45.914Z,3.10
2023-08-25T11:26:18.393Z,2.50
2023-08-25T11:28:52.109Z,3.00
2023-08-25T11:31:25.034Z,3.60
2023-08-25T11:33:53.584Z,3.20
2023-08-25T11:36:25.910Z,2.20
2023-08-25T11:38:54.261Z,2.60
2023-08-25T11:41:23.832Z,2.80
2023-08-25T11:43:52.146Z,2.30
2023-08-25T11:46:21.076Z,3.10
2023-08-25T11:48:50.005Z,2.60
2023-08-25T11:51:19.741Z,2.70
2023-08-25T11:53:48.487Z,2.50
2023-08-25T11:56:18.638Z,2.80
2023-08-25T11:58:49.304Z,2.40
2023-08-25T12:01:17.706Z,2.70
2023-08-25T12:03:46.425Z,2.30
2023-08-25T12:06:16.614Z,2.40
2023-08-25T12:08:44.879Z,2.50
2023-08-25T12:11:15.230Z,2.30
2023-08-25T12:13:45.570Z,2.20
2023-08-25T12:16:15.339Z,2.20
2023-08-25T12:18:44.272Z,2.40
2023-08-25T12:21:12.567Z,2.50
2023-08-25T12:23:42.747Z,2.50
2023-08-25T12:26:13.293Z,2.50
2023-08-25T12:28:44.477Z,1.80
2023-08-25T12:31:12.867Z,2.20
2023-08-25T12:33:41.324Z,1.80
2023-08-25T12:36:09.803Z,2.40
2023-08-25T12:38:38.345Z,2.30
2023-08-25T12:41:06.418Z,1.80
2023-08-25T12:43:36.743Z,1.70
2023-08-25T12:46:05.520Z,2.40
2023-08-25T12:48:34.773Z,2.10
2023-08-25T12:51:02.989Z,1.80
2023-08-25T12:53:31.105Z,1.90
2023-08-25T12:55:59.278Z,2.00
2023-08-25T12:58:28.309Z,2.20
2023-08-25T13:00:56.627Z,2.00
2023-08-25T13:03:25.047Z,2.00
2023-08-25T13:05:53.529Z,1.70
2023-08-25T13:08:21.578Z,2.10
2023-08-25T13:10:52.582Z,1.70
2023-08-25T13:15:48.850Z,1.50
2023-08-25T13:18:17.181Z,2.00
2023-08-25T13:20:47.103Z,1.70
2023-08-25T13:23:33.265Z,1.80
2023-08-25T13:26:05.528Z,1.80
2023-08-25T13:28:33.676Z,1.60
2023-08-25T13:31:01.772Z,1.80
2023-08-25T13:33:31.965Z,2.10
2023-08-25T13:36:01.120Z,1.90
2023-08-25T13:38:29.659Z,1.90
2023-08-25T13:40:57.726Z,2.10
2023-08-25T13:43:25.909Z,1.80
2023-08-25T13:45:56.223Z,1.90
2023-08-25T13:48:25.204Z,1.90
2023-08-25T13:50:53.521Z,1.90
2023-08-25T13:53:21.829Z,1.70
2023-08-25T13:55:50.296Z,1.90
2023-08-25T13:58:18.817Z,1.90
2023-08-25T14:00:47.535Z,1.70
2023-08-25T14:03:15.620Z,1.80
2023-08-25T14:05:44.410Z,2.10
2023-08-25T14:08:12.567Z,1.80
2023-08-25T14:10:40.809Z,1.80
2023-08-25T14:13:09.453Z,2.30
2023-08-25T14:15:37.784Z,1.90
2023-08-25T14:18:06.670Z,1.90
2023-08-25T14:20:34.786Z,2.30
2023-08-25T14:23:04.178Z,2.00
2023-08-25T14:25:33.973Z,1.70
2023-08-25T14:28:05.703Z,2.10
2023-08-25T14:30:35.637Z,2.10
2023-08-25T14:33:04.580Z,1.60
2023-08-25T14:35:33.251Z,2.00
2023-08-25T14:38:02.603Z,1.90
2023-08-25T14:40:30.679Z,1.50
2023-08-25T14:42:59.769Z,1.80
2023-08-25T14:45:27.829Z,1.80
2023-08-25T14:47:57.070Z,1.90
2023-08-25T14:50:27.349Z,1.70
2023-08-25T14:52:55.562Z,2.20
2023-08-25T14:55:23.650Z,1.80
2023-08-25T14:57:52.015Z,2.10
2023-08-25T15:00:20.481Z,2.30
2023-08-25T15:02:48.977Z,2.00
2023-08-25T15:05:17.606Z,1.70
2023-08-25T15:07:46.072Z,1.70
2023-08-25T15:10:14.384Z,1.50
2023-08-25T15:12:42.418Z,2.50
2023-08-25T15:15:10.990Z,2.00
2023-08-25T15:17:39.145Z,1.80
2023-08-25T15:20:08.751Z,2.20
2023-08-25T15:22:37.117Z,1.80
2023-08-25T15:25:05.975Z,1.80
2023-08-25T15:27:34.102Z,2.40
2023-08-25T15:30:02.625Z,1.80
2023-08-25T15:32:30.756Z,2.30
2023-08-25T15:34:59.207Z,2.30
2023-08-25T15:37:30.717Z,2.10
2023-08-25T15:39:59.130Z,1.90
2023-08-25T15:42:28.110Z,2.00
2023-08-25T15:44:56.745Z,2.50
2023-08-25T15:47:25.333Z,2.20
2023-08-25T15:49:53.618Z,1.90
2023-08-25T15:52:22.978Z,2.30
2023-08-25T15:54:51.288Z,2.70
2023-08-25T15:57:21.107Z,2.60
2023-08-25T15:59:51.223Z,3.50
2023-08-25T16:02:19.545Z,3.70
2023-08-25T16:04:47.604Z,3.30
2023-08-25T16:07:15.698Z,3.20
2023-08-25T16:09:44.825Z,3.90
2023-08-25T16:12:13.087Z,2.60
2023-08-25T16:14:41.310Z,3.10
2023-08-25T16:17:09.636Z,2.90
2023-08-25T16:19:37.903Z,2.70
2023-08-25T16:22:06.280Z,3.40
2023-08-25T16:24:35.873Z,3.00
2023-08-25T16:27:04.703Z,3.50
2023-08-25T16:29:32.824Z,3.20
2023-08-25T16:32:01.393Z,3.20
2023-08-25T16:34:29.663Z,2.80
2023-08-25T16:37:00.707Z,4.00
2023-08-25T16:39:29.993Z,4.00
2023-08-25T16:41:58.382Z,3.20
2023-08-25T16:44:26.771Z,3.00
2023-08-25T16:46:55.440Z,3.30
2023-08-25T16:49:23.839Z,3.40
2023-08-25T16:51:52.021Z,4.40
2023-08-25T16:54:20.318Z,3.60
2023-08-25T16:56:48.409Z,3.60
2023-08-25T16:59:18.261Z,4.00
2023-08-25T17:01:46.554Z,3.50
2023-08-25T17:04:14.684Z,4.00
2023-08-25T17:06:42.913Z,4.10
2023-08-25T17:09:10.986Z,3.70
2023-08-25T17:11:39.015Z,4.60
2023-08-25T17:14:07.767Z,4.80
2023-08-25T17:16:36.170Z,4.40
2023-08-25T17:19:04.595Z,4.70
2023-08-25T17:21:32.653Z,5.80
2023-08-25T17:24:01.112Z,6.10
2023-08-25T17:26:29.492Z,5.60
2023-08-25T17:28:57.571Z,6.00
2023-08-25T17:31:26.100Z,6.60
2023-08-25T17:33:54.644Z,8.10
2023-08-25T17:36:23.350Z,8.10
2023-08-25T17:38:51.713Z,7.70
2023-08-25T17:41:19.887Z,9.70
2023-08-25T17:43:47.904Z,9.40
2023-08-25T17:46:16.417Z,8.10
2023-08-25T17:48:44.778Z,8.00
2023-08-25T17:51:13.557Z,7.80
2023-08-25T17:53:42.567Z,7.20
2023-08-25T17:56:10.883Z,8.80
2023-08-25T17:58:39.114Z,8.60
2023-08-25T18:01:08.832Z,8.10
2023-08-25T18:03:40.380Z,8.40
2023-08-25T18:06:09.269Z,8.10
2023-08-25T18:08:40.684Z,7.80
2023-08-25T18:11:09.313Z,7.20
2023-08-25T18:13:39.977Z,6.60
2023-08-25T18:16:08.318Z,6.40
2023-08-25T18:18:36.828Z,6.10
2023-08-25T18:21:06.817Z,6.60
2023-08-25T18:23:38.023Z,5.90
2023-08-25T18:26:06.226Z,6.70
2023-08-25T18:28:35.058Z,5.60
2023-08-25T18:31:07.940Z,6.60
2023-08-25T18:33:39.843Z,5.70
2023-08-25T18:36:09.473Z,6.70
2023-08-25T18:38:37.781Z,6.60
2023-08-25T18:41:07.020Z,7.00
2023-08-25T18:43:36.233Z,6.80
2023-08-25T18:46:07.410Z,6.50
2023-08-25T18:48:35.956Z,7.80
2023-08-25T18:51:05.262Z,7.20
2023-08-25T18:53:33.361Z,8.10
2023-08-25T18:56:01.641Z,6.60
2023-08-25T18:58:29.987Z,8.50
2023-08-25T19:00:59.468Z,6.80
2023-08-25T19:03:27.696Z,6.90
2023-08-25T19:05:55.856Z,6.70
2023-08-25T19:08:24.138Z,7.70
2023-08-25T19:10:55.099Z,6.60
2023-08-25T19:13:23.279Z,6.90
2023-08-25T19:16:03.177Z,7.20
2023-08-25T19:18:31.693Z,6.70
2023-08-25T19:21:04.068Z,7.00
2023-08-25T19:23:34.288Z,7.70
2023-08-25T19:26:11.418Z,7.30
2023-08-25T19:28:42.655Z,7.10
2023-08-25T19:31:13.856Z,6.40
2023-08-25T19:33:42.121Z,7.10
2023-08-25T19:36:13.233Z,6.00
2023-08-25T19:38:41.893Z,6.60
2023-08-25T19:41:10.102Z,7.50
2023-08-25T19:43:40.668Z,6.40
2023-08-25T19:46:09.561Z,6.50
2023-08-25T19:48:39.452Z,7.20
2023-08-25T19:51:09.248Z,6.80
2023-08-25T19:53:39.426Z,7.10
2023-08-25T19:56:08.857Z,7.90
2023-08-25T19:58:36.997Z,7.40
2023-08-25T20:01:06.193Z,7.70
2023-08-25T20:03:34.730Z,7.60
2023-08-25T20:06:06.071Z,7.90
2023-08-25T20:08:35.858Z,8.20
2023-08-25T20:11:06.301Z,7.40
2023-08-25T20:13:35.471Z,7.20
2023-08-25T20:16:03.917Z,8.80
2023-08-25T20:18:32.500Z,8.30
2023-08-25T20:21:00.985Z,7.90
2023-08-25T20:23:29.314Z,7.30
2023-08-25T20:25:57.525Z,7.60
2023-08-25T20:28:25.701Z,8.70
2023-08-25T20:30:54.804Z,8.50
2023-08-25T20:33:23.335Z,7.60
2023-08-25T20:35:51.952Z,7.90
2023-08-25T20:38:20.559Z,8.60
2023-08-25T20:40:56.563Z,9.20
2023-08-25T20:43:25.651Z,9.80
2023-08-25T20:46:22.184Z,8.90
2023-08-25T20:48:51.655Z,8.10
2023-08-25T20:51:24.632Z,8.30
2023-08-25T20:53:54.868Z,8.50
2023-08-25T20:56:23.732Z,9.10
2023-08-25T20:58:51.780Z,8.50
2023-08-25T21:01:20.315Z,8.80
2023-08-25T21:03:48.718Z,8.50
2023-08-25T21:06:16.873Z,8.70
2023-08-25T21:08:45.068Z,8.40
2023-08-25T21:11:13.537Z,8.00
2023-08-25T21:13:41.749Z,7.50
2023-08-25T21:16:09.966Z,7.30
2023-08-25T21:18:38.278Z,8.30
2023-08-25T21:21:07.586Z,7.60
2023-08-25T21:23:35.764Z,7.70
2023-08-25T21:26:04.131Z,7.10
2023-08-25T21:28:32.466Z,8.20
2023-08-25T21:31:00.574Z,8.90
2023-08-25T21:33:29.649Z,7.80
2023-08-25T21:35:58.488Z,8.30
2023-08-25T21:38:26.688Z,8.40
2023-08-25T21:40:59.023Z,8.20
2023-08-25T21:43:28.083Z,9.00
2023-08-25T21:45:56.881Z,9.20
2023-08-25T21:48:25.088Z,8.90
2023-08-25T21:50:53.342Z,7.90
2023-08-25T21:53:21.657Z,8.00
2023-08-25T21:55:49.929Z,8.80
2023-08-25T21:58:18.181Z,7.80
2023-08-25T22:00:47.668Z,7.90
2023-08-25T22:03:16.044Z,7.80
2023-08-25T22:05:44.436Z,7.40
2023-08-25T22:08:12.748Z,6.80
2023-08-25T22:10:40.762Z,7.30
2023-08-25T22:13:09.065Z,7.40
2023-08-25T22:15:37.841Z,7.40
2023-08-25T22:18:06.985Z,6.80
2023-08-25T22:20:35.163Z,6.70
2023-08-25T22:23:03.643Z,7.00
2023-08-25T22:25:32.077Z,7.40
2023-08-25T22:28:00.181Z,7.70
2023-08-25T22:30:28.526Z,8.80
2023-08-25T22:35:38.371Z,7.40
2023-08-25T22:38:06.988Z,7.50
2023-08-25T22:40:35.260Z,8.00
2023-08-25T22:43:05.513Z,7.20
2023-08-25T22:45:33.925Z,7.00
2023-08-25T22:48:02.495Z,6.40
2023-08-25T22:50:34.066Z,6.70
2023-08-25T22:53:02.350Z,7.10
2023-08-25T22:55:30.591Z,6.90
2023-08-25T22:57:58.808Z,6.30
2023-08-25T23:00:27.623Z,6.60
2023-08-25T23:02:56.873Z,6.00
2023-08-25T23:05:25.369Z,6.30
2023-08-25T23:07:53.673Z,6.00
2023-08-25T23:10:22.031Z,6.30
2023-08-25T23:12:50.274Z,6.00
2023-08-25T23:15:18.383Z,6.10
2023-08-25T23:17:46.524Z,6.30
2023-08-25T23:20:14.807Z,6.70
2023-08-25T23:22:42.907Z,6.40
2023-08-25T23:25:11.170Z,7.70
2023-08-25T23:27:39.506Z,7.20
2023-08-25T23:30:08.891Z,7.80
2023-08-25T23:32:37.069Z,8.70
2023-08-25T23:35:06.409Z,7.40
2023-08-25T23:37:35.273Z,7.40
2023-08-25T23:40:05.078Z,7.80
2023-08-25T23:42:33.479Z,8.20
2023-08-25T23:45:01.697Z,7.60
2023-08-25T23:47:30.029Z,6.80
2023-08-25T23:49:58.340Z,7.20
2023-08-25T23:52:26.690Z,6.70
2023-08-25T23:54:57.729Z,6.90
2023-08-25T23:57:26.021Z,7.10
2023-08-25T23:59:54.371Z,7.00
